Terminal Aerodrome Forecast
Issued by NWS Louisville, KY

Home | Current Version | Previous Version | Text Only | Print | Product List | Glossary On
Versions: 1 2 3 4 5 6 7 8 9 10 11 12 13 14 15 16 17 18
000
FTUS43 KLMK 281725 CCA
TAFLEX
TAF COR
KLEX 281725Z 2818/2918 23014G21KT P6SM VCSH SCT025 BKN050
     FM290000 26006KT P6SM SKC
     FM291500 25005KT P6SM SCT100=

USA.gov is the U.S. government's official web portal to all federal, state and local government web resources and services.